createdAt,value
2019-02-06T00:02:38.332Z,29.3
2019-02-06T00:05:44.394Z,29.3
2019-02-06T00:08:50.453Z,29.4
2019-02-06T00:11:56.515Z,29.4
2019-02-06T00:15:02.995Z,29.4
2019-02-06T00:18:09.078Z,29.4
2019-02-06T00:21:15.018Z,29.4
2019-02-06T00:24:24.161Z,29.4
2019-02-06T00:27:32.990Z,29.5
2019-02-06T00:30:39.146Z,29.5
2019-02-06T00:33:46.123Z,29.5
2019-02-06T00:36:52.080Z,29.5
2019-02-06T00:39:58.039Z,29.5
2019-02-06T00:43:04.113Z,29.5
2019-02-06T00:46:12.772Z,29.6
2019-02-06T00:49:18.795Z,29.6
2019-02-06T00:52:25.163Z,29.6
2019-02-06T00:55:32.867Z,29.6
2019-02-06T00:58:38.740Z,29.6
2019-02-06T01:01:44.679Z,29.6
2019-02-06T01:04:50.641Z,29.8
2019-02-06T01:07:56.604Z,29.7
2019-02-06T01:11:02.664Z,29.7
2019-02-06T01:14:08.640Z,29.7
2019-02-06T01:17:14.788Z,29.7
2019-02-06T01:20:20.753Z,29.7
2019-02-06T01:23:26.810Z,29.7
2019-02-06T01:26:33.488Z,29.7
2019-02-06T01:29:39.445Z,29.7
2019-02-06T01:32:45.914Z,29.7
2019-02-06T01:35:53.829Z,29.7
2019-02-06T01:39:02.706Z,29.6
2019-02-06T01:42:08.706Z,29.6
2019-02-06T01:45:14.647Z,29.6
2019-02-06T01:48:20.729Z,29.6
2019-02-06T01:51:26.705Z,29.5
2019-02-06T01:54:32.657Z,29.5
2019-02-06T01:57:38.715Z,29.5
2019-02-06T02:00:44.775Z,29.5
2019-02-06T02:03:50.732Z,29.4
2019-02-06T02:06:58.540Z,29.4
2019-02-06T02:10:04.429Z,29.5
2019-02-06T02:13:10.662Z,29.3
2019-02-06T02:16:17.037Z,29.3
2019-02-06T02:19:26.070Z,29.2
2019-02-06T02:22:31.941Z,29.1
2019-02-06T02:25:37.982Z,29
2019-02-06T02:28:43.941Z,28.9
2019-02-06T02:31:49.915Z,28.8
2019-02-06T02:34:56.165Z,28.8
2019-02-06T02:38:03.563Z,28.7
2019-02-06T02:41:09.523Z,28.7
2019-02-06T02:44:15.486Z,28.6
2019-02-06T02:47:21.470Z,28.5
2019-02-06T02:50:27.418Z,28.5
2019-02-06T02:53:33.459Z,28.5
2019-02-06T02:56:42.263Z,28.4
2019-02-06T02:59:52.446Z,28.4
2019-02-06T03:03:01.382Z,28.3
2019-02-06T03:06:07.436Z,28.3
2019-02-06T03:09:13.399Z,28.2
2019-02-06T03:12:19.363Z,28.2
2019-02-06T03:15:25.522Z,28.2
2019-02-06T03:18:31.586Z,28.2
2019-02-06T03:21:38.157Z,28.2
2019-02-06T03:24:44.222Z,28.1
2019-02-06T03:27:50.482Z,28.1
2019-02-06T03:30:58.160Z,28.1
2019-02-06T03:34:05.683Z,28.1
2019-02-06T03:37:11.641Z,28
2019-02-06T03:40:17.598Z,28
2019-02-06T03:43:23.560Z,28
2019-02-06T03:46:29.521Z,28
2019-02-06T03:49:35.480Z,27.9
2019-02-06T03:52:45.948Z,27.9
2019-02-06T03:55:51.820Z,27.9
2019-02-06T03:58:58.169Z,27.9
2019-02-06T04:02:04.553Z,27.8
2019-02-06T04:05:13.375Z,27.7
2019-02-06T04:08:22.308Z,27.6
2019-02-06T04:11:28.270Z,27.6
2019-02-06T04:14:34.219Z,27.5
2019-02-06T04:17:40.183Z,27.5
2019-02-06T04:20:46.549Z,27.5
2019-02-06T04:23:53.999Z,27.4
2019-02-06T04:27:00.109Z,27.5
2019-02-06T04:30:05.974Z,27.2
2019-02-06T04:33:11.915Z,27.4
2019-02-06T04:36:17.875Z,27.4
2019-02-06T04:39:23.800Z,27.3
2019-02-06T04:42:30.000Z,27.4
2019-02-06T04:45:36.265Z,27.2
2019-02-06T04:48:42.211Z,27
2019-02-06T04:51:48.186Z,27
2019-02-06T04:54:56.297Z,27.1
2019-02-06T04:58:02.463Z,26.8
2019-02-06T05:01:08.523Z,27.2
2019-02-06T05:04:14.588Z,27.1
2019-02-06T05:07:20.750Z,26.9
2019-02-06T05:10:26.813Z,26.7
2019-02-06T05:13:32.770Z,26.6
2019-02-06T05:16:38.728Z,26.5
2019-02-06T05:19:44.695Z,26.5
2019-02-06T05:22:53.653Z,26.5
2019-02-06T05:26:02.039Z,26.4
2019-02-06T05:29:08.028Z,26.4
2019-02-06T05:32:14.158Z,26.3
2019-02-06T05:35:20.428Z,26.3
2019-02-06T05:38:26.492Z,26.5
2019-02-06T05:41:32.453Z,26.3
2019-02-06T05:44:38.406Z,26.3
2019-02-06T05:47:44.374Z,26.3
2019-02-06T05:50:50.538Z,26.3
2019-02-06T05:53:59.359Z,27.7
2019-02-06T05:57:05.831Z,28
2019-02-06T06:00:11.822Z,27.6
2019-02-06T06:03:17.950Z,27
2019-02-06T06:06:26.047Z,26.7
2019-02-06T06:09:31.979Z,26.9
2019-02-06T06:12:38.296Z,27
2019-02-06T06:15:44.513Z,26.7
2019-02-06T06:18:50.428Z,26.5
2019-02-06T06:21:56.359Z,26.8
2019-02-06T06:25:02.321Z,26.7
2019-02-06T06:28:08.211Z,26.7
2019-02-06T06:31:14.188Z,26.5
2019-02-06T06:34:20.058Z,26.7
2019-02-06T06:37:26.112Z,26.5
2019-02-06T06:40:31.949Z,26.5
2019-02-06T06:43:37.869Z,26.3
2019-02-06T06:46:45.032Z,26.4
2019-02-06T06:49:50.912Z,26.7
2019-02-06T06:52:57.146Z,26.6
2019-02-06T06:56:04.111Z,26.1
2019-02-06T06:59:10.086Z,26.2
2019-02-06T07:02:16.046Z,26.1
2019-02-06T07:05:21.969Z,26.6
2019-02-06T07:08:27.914Z,25.7
2019-02-06T07:11:33.781Z,25.8
2019-02-06T07:14:39.681Z,25.9
2019-02-06T07:17:46.212Z,25.6
2019-02-06T07:20:52.770Z,25.3
2019-02-06T07:23:59.066Z,25.9
2019-02-06T07:27:06.602Z,26.1
2019-02-06T07:30:12.541Z,25.9
2019-02-06T07:33:18.529Z,25.7
2019-02-06T07:36:24.454Z,25.5
2019-02-06T07:39:30.313Z,25.9
2019-02-06T07:42:36.363Z,25.7
2019-02-06T07:45:42.534Z,25.4
2019-02-06T07:48:48.391Z,25.5
2019-02-06T07:51:54.306Z,25.4
2019-02-06T07:55:00.252Z,25.4
2019-02-06T07:58:08.830Z,25.7
2019-02-06T08:01:14.756Z,25.5
2019-02-06T08:04:21.051Z,25.3
2019-02-06T08:07:28.308Z,25.3
2019-02-06T08:10:34.171Z,25.3
2019-02-06T08:13:40.255Z,25.6
2019-02-06T08:16:47.258Z,25.6
2019-02-06T08:19:53.168Z,25.4
2019-02-06T08:23:01.555Z,25.3
2019-02-06T08:26:07.494Z,25.5
2019-02-06T08:29:15.216Z,25.6
2019-02-06T08:32:21.158Z,25.4
2019-02-06T08:35:27.079Z,25.7
2019-02-06T08:38:33.377Z,25.4
2019-02-06T08:41:53.263Z,25.4
2019-02-06T08:44:59.231Z,25.3
2019-02-06T08:48:05.571Z,25.7
2019-02-06T08:51:11.553Z,26
2019-02-06T08:54:20.986Z,25.4
2019-02-06T08:57:27.164Z,25.4
2019-02-06T09:00:33.115Z,25.5
2019-02-06T09:03:40.399Z,25.7
2019-02-06T09:06:49.181Z,25.6
2019-02-06T09:09:55.313Z,25.6
2019-02-06T09:13:02.060Z,25.6
2019-02-06T09:16:09.118Z,25.5
2019-02-06T09:19:15.010Z,25.5
2019-02-06T09:22:20.935Z,25.5
2019-02-06T09:25:26.867Z,25.5
2019-02-06T09:28:33.011Z,25.6
2019-02-06T09:31:42.239Z,25.5
2019-02-06T09:34:50.690Z,25.5
2019-02-06T09:37:56.568Z,25.4
2019-02-06T09:41:02.683Z,25.5
2019-02-06T09:44:11.379Z,25.5
2019-02-06T09:47:17.250Z,25.5
2019-02-06T09:50:23.193Z,25.4
2019-02-06T09:53:29.062Z,25.4
2019-02-06T09:56:35.013Z,25.6
2019-02-06T09:59:41.043Z,25.5
2019-02-06T10:02:46.931Z,25.5
2019-02-06T10:05:54.852Z,25.5
2019-02-06T10:09:00.716Z,25.6
2019-02-06T10:12:07.083Z,25.8
2019-02-06T10:15:16.795Z,25.4
2019-02-06T10:18:25.330Z,25.4
2019-02-06T10:21:31.237Z,25.3
2019-02-06T10:24:37.142Z,25.2
2019-02-06T10:27:43.372Z,25.1
2019-02-06T10:30:49.365Z,25
2019-02-06T10:33:58.020Z,24.9
2019-02-06T10:37:04.653Z,25.2
2019-02-06T10:40:10.584Z,25
2019-02-06T10:43:16.617Z,24.9
2019-02-06T10:46:38.553Z,25
2019-02-06T10:49:44.840Z,25.1
2019-02-06T10:52:50.840Z,25
2019-02-06T10:55:56.718Z,24.9
2019-02-06T10:59:03.617Z,24.8
2019-02-06T11:02:09.518Z,24.9
2019-02-06T11:05:15.549Z,24.9
2019-02-06T11:08:21.484Z,24.9
2019-02-06T11:11:27.375Z,24.8
2019-02-06T11:14:33.507Z,24.9
2019-02-06T11:17:39.583Z,24.9
2019-02-06T11:20:47.729Z,25
2019-02-06T11:23:53.671Z,24.9
2019-02-06T11:26:59.787Z,25
2019-02-06T11:30:05.780Z,25
2019-02-06T11:33:15.647Z,25.1
2019-02-06T11:36:24.978Z,25.7
2019-02-06T11:39:32.277Z,25.5
2019-02-06T11:42:39.877Z,25.3
2019-02-06T11:45:46.033Z,25.3
2019-02-06T11:48:51.931Z,25.1
2019-02-06T11:51:58.359Z,25.2
2019-02-06T11:55:08.368Z,24.9
2019-02-06T11:58:14.570Z,25
2019-02-06T12:01:21.666Z,24.9
2019-02-06T12:04:30.798Z,25
2019-02-06T12:07:37.874Z,25.2
2019-02-06T12:10:45.126Z,25
2019-02-06T12:13:53.795Z,24.9
2019-02-06T12:16:59.864Z,24.9
2019-02-06T12:20:07.158Z,24.8
2019-02-06T12:23:13.148Z,24.8
2019-02-06T12:26:33.054Z,24.9
2019-02-06T12:29:38.987Z,25.1
2019-02-06T12:32:52.903Z,25
2019-02-06T12:35:59.298Z,25
2019-02-06T12:39:06.905Z,25.1
2019-02-06T12:42:25.798Z,24.9
2019-02-06T12:45:31.799Z,25.1
2019-02-06T12:48:37.669Z,25.2
2019-02-06T12:51:43.832Z,25.2
2019-02-06T12:54:49.730Z,25.2
2019-02-06T12:57:55.583Z,25.4
2019-02-06T13:01:02.524Z,25.3
2019-02-06T13:04:08.413Z,25.3
2019-02-06T13:07:14.517Z,25.6
2019-02-06T13:10:35.424Z,25.7
2019-02-06T13:13:45.111Z,25.5
2019-02-06T13:16:51.792Z,25.6
2019-02-06T13:19:58.456Z,26.1
2019-02-06T13:23:06.454Z,25.7
2019-02-06T13:26:16.523Z,26
2019-02-06T13:29:24.552Z,26.9
2019-02-06T13:32:30.462Z,25.8
2019-02-06T13:35:38.604Z,25.9
2019-02-06T13:39:03.914Z,26.1
2019-02-06T13:42:17.557Z,26.1
2019-02-06T13:45:23.707Z,26.4
2019-02-06T13:48:29.583Z,26.5
2019-02-06T13:51:38.853Z,26.5
2019-02-06T13:54:45.894Z,26.1
2019-02-06T13:57:51.815Z,25.8
2019-02-06T14:00:59.650Z,25.8
2019-02-06T14:04:05.823Z,26.4
2019-02-06T14:07:11.950Z,27.1
2019-02-06T14:10:20.302Z,27
2019-02-06T14:13:26.375Z,26.3
2019-02-06T14:16:33.304Z,26.8
2019-02-06T14:19:41.245Z,26.6
2019-02-06T14:22:50.667Z,26.4
2019-02-06T14:25:57.691Z,26.4
2019-02-06T14:29:06.517Z,26.2
2019-02-06T14:32:15.321Z,27.3
2019-02-06T14:35:22.733Z,26.3
2019-02-06T14:38:28.705Z,26.5
2019-02-06T14:41:34.946Z,26.5
2019-02-06T14:44:41.681Z,26.4
2019-02-06T14:47:47.617Z,26.4
2019-02-06T14:50:53.510Z,26.5
2019-02-06T14:53:59.456Z,26.7
2019-02-06T14:57:05.606Z,26.8
2019-02-06T15:00:11.731Z,26.4
2019-02-06T15:03:17.895Z,26.8
2019-02-06T15:06:25.054Z,26.7
2019-02-06T15:09:30.941Z,26.6
2019-02-06T15:12:36.837Z,26.6
2019-02-06T15:15:42.815Z,26.5
2019-02-06T15:18:48.696Z,26.2
2019-02-06T15:21:54.749Z,26.5
2019-02-06T15:25:00.734Z,26.7
2019-02-06T15:28:08.474Z,26.5
2019-02-06T15:31:14.366Z,26.6
2019-02-06T15:34:20.257Z,26.3
2019-02-06T15:37:26.141Z,26.4
2019-02-06T15:40:32.036Z,26.4
2019-02-06T15:43:37.955Z,26.3
2019-02-06T15:46:43.840Z,26.3
2019-02-06T15:49:49.753Z,26.5
2019-02-06T15:52:55.637Z,26.3
2019-02-06T15:56:01.977Z,26.3
2019-02-06T15:59:09.786Z,26.2
2019-02-06T16:02:15.979Z,26.2
2019-02-06T16:05:22.007Z,26.2
2019-02-06T16:08:30.868Z,26.2
2019-02-06T16:11:43.133Z,26.3
2019-02-06T16:14:49.041Z,26.3
2019-02-06T16:17:55.390Z,26.3
2019-02-06T16:21:01.306Z,26.4
2019-02-06T16:24:07.280Z,26.5
2019-02-06T16:27:13.164Z,26.5
2019-02-06T16:30:19.110Z,26.5
2019-02-06T16:33:25.006Z,26.3
2019-02-06T16:36:30.897Z,26.2
2019-02-06T16:39:36.852Z,26.2
2019-02-06T16:42:44.654Z,26.2
2019-02-06T16:45:50.765Z,26.2
2019-02-06T16:48:56.643Z,26.1
2019-02-06T16:52:02.552Z,26.1
2019-02-06T16:55:08.478Z,26.3
2019-02-06T16:58:14.385Z,26.2
2019-02-06T17:01:20.648Z,26.2
2019-02-06T17:04:27.736Z,26.2
2019-02-06T17:07:33.948Z,26.2
2019-02-06T17:10:40.073Z,26.3
2019-02-06T17:13:45.941Z,26.3
2019-02-06T17:16:51.851Z,26.2
2019-02-06T17:19:57.907Z,26.2
2019-02-06T17:23:03.912Z,26.2
2019-02-06T17:26:09.936Z,26.2
2019-02-06T17:29:15.997Z,26.1
2019-02-06T17:32:22.154Z,26.1
2019-02-06T17:35:28.851Z,26.2
2019-02-06T17:38:34.895Z,26.1
2019-02-06T17:41:40.854Z,26.1
2019-02-06T17:44:46.813Z,26.2
2019-02-06T17:47:52.801Z,26.3
2019-02-06T17:50:58.724Z,26.3
2019-02-06T17:54:05.101Z,26.4
2019-02-06T17:57:12.312Z,26.2
2019-02-06T18:00:18.353Z,26.3
2019-02-06T18:03:24.225Z,26.3
2019-02-06T18:06:30.265Z,26.3
2019-02-06T18:09:36.420Z,26.3
2019-02-06T18:12:42.491Z,26.3
2019-02-06T18:15:48.366Z,26.5
2019-02-06T18:18:54.615Z,26.4
2019-02-06T18:22:00.681Z,26.5
2019-02-06T18:25:06.639Z,26.5
2019-02-06T18:28:14.345Z,26.4
2019-02-06T18:31:20.457Z,26.4
2019-02-06T18:34:26.879Z,26.4
2019-02-06T18:37:42.767Z,26.4
2019-02-06T18:40:49.518Z,26.4
2019-02-06T18:43:55.703Z,26.4
2019-02-06T18:47:01.869Z,26.5
2019-02-06T18:50:07.910Z,26.4
2019-02-06T18:53:13.889Z,26.5
2019-02-06T18:56:19.951Z,26.5
2019-02-06T18:59:26.125Z,26.6
2019-02-06T19:02:35.557Z,26.5
2019-02-06T19:05:44.797Z,26.5
2019-02-06T19:08:51.144Z,26.6
2019-02-06T19:11:57.238Z,26.6
2019-02-06T19:15:03.199Z,26.6
2019-02-06T19:18:09.356Z,26.6
2019-02-06T19:21:15.519Z,26.6
2019-02-06T19:24:21.687Z,26.7
2019-02-06T19:27:27.753Z,26.7
2019-02-06T19:30:33.907Z,26.7
2019-02-06T19:33:39.871Z,26.7
2019-02-06T19:36:45.926Z,26.7
2019-02-06T19:39:51.991Z,26.7
2019-02-06T19:43:02.858Z,26.7
2019-02-06T19:46:10.156Z,26.8
2019-02-06T19:49:16.319Z,26.8
2019-02-06T19:52:22.385Z,26.8
2019-02-06T19:55:30.087Z,26.7
2019-02-06T19:58:36.145Z,26.8
2019-02-06T20:01:45.598Z,26.8
2019-02-06T20:04:53.182Z,26.9
2019-02-06T20:07:59.348Z,26.8
2019-02-06T20:11:05.667Z,26.9
2019-02-06T20:14:12.906Z,26.9
2019-02-06T20:17:21.618Z,27
2019-02-06T20:20:27.592Z,27.1
2019-02-06T20:23:33.861Z,27.3
2019-02-06T20:26:43.204Z,27.4
2019-02-06T20:29:49.369Z,27.4
2019-02-06T20:32:55.427Z,27.5
2019-02-06T20:36:01.484Z,27.5
2019-02-06T20:39:07.551Z,27.6
2019-02-06T20:42:13.920Z,27.7
2019-02-06T20:45:19.985Z,27.7
2019-02-06T20:48:26.243Z,27.7
2019-02-06T20:51:32.209Z,27.8
2019-02-06T20:54:38.204Z,27.8
2019-02-06T20:57:44.333Z,27.9
2019-02-06T21:00:50.287Z,27.9
2019-02-06T21:03:57.486Z,28
2019-02-06T21:07:03.536Z,28
2019-02-06T21:10:09.803Z,28.1
2019-02-06T21:13:19.553Z,28.1
2019-02-06T21:16:38.415Z,28.2
2019-02-06T21:19:44.475Z,28.2
2019-02-06T21:22:50.742Z,28.3
2019-02-06T21:25:57.729Z,28.3
2019-02-06T21:29:03.688Z,28.3
2019-02-06T21:32:09.661Z,28.4
2019-02-06T21:35:15.815Z,28.4
2019-02-06T21:38:21.871Z,28.4
2019-02-06T21:41:27.938Z,28.5
2019-02-06T21:44:34.043Z,28.5
2019-02-06T21:47:40.271Z,28.5
2019-02-06T21:50:46.327Z,28.5
2019-02-06T21:53:52.694Z,28.5
2019-02-06T21:56:59.737Z,28.6
2019-02-06T22:00:05.946Z,28.6
2019-02-06T22:03:12.012Z,28.7
2019-02-06T22:06:18.075Z,28.7
2019-02-06T22:09:24.301Z,28.7
2019-02-06T22:12:30.208Z,28.7
2019-02-06T22:15:36.259Z,28.8
2019-02-06T22:18:43.899Z,28.8
2019-02-06T22:21:50.018Z,28.8
2019-02-06T22:24:56.045Z,28.8
2019-02-06T22:28:02.245Z,28.8
2019-02-06T22:31:08.412Z,28.9
2019-02-06T22:34:14.370Z,28.9
2019-02-06T22:37:20.434Z,28.9
2019-02-06T22:40:26.494Z,29
2019-02-06T22:43:32.554Z,29
2019-02-06T22:46:38.428Z,29
2019-02-06T22:49:46.522Z,29
2019-02-06T22:52:52.583Z,29
2019-02-06T22:55:58.747Z,29.1
2019-02-06T22:59:04.812Z,29.1
2019-02-06T23:02:10.873Z,29.1
2019-02-06T23:05:17.036Z,29.1
2019-02-06T23:08:22.961Z,29.1
2019-02-06T23:11:29.467Z,29.2
2019-02-06T23:14:35.633Z,29.2
2019-02-06T23:17:41.899Z,29.2
2019-02-06T23:20:48.847Z,29.2
2019-02-06T23:23:54.848Z,29.2
2019-02-06T23:27:00.910Z,29.3
2019-02-06T23:30:06.869Z,29.3
2019-02-06T23:33:12.927Z,29.3
2019-02-06T23:36:18.885Z,29.3
2019-02-06T23:39:24.947Z,29.3
2019-02-06T23:42:33.036Z,29.4
2019-02-06T23:45:39.119Z,29.3
2019-02-06T23:48:45.085Z,29.4
2019-02-06T23:51:51.141Z,29.4
2019-02-06T23:54:57.202Z,29.4
2019-02-06T23:58:06.240Z,29.4
